• Join FlightAware (Why Join?)
  • Login
  • US Flag 
09:39AM EDT


 

Airport Tracker/Info


-or-


 

Live Flight TrackerFlight Track Log ✈ FLG4208 ✈ 10-Jun-2013 ✈ KDTW - KBTV

Flight Track Log - Related Links

Times and Time Zones

All times are in EDT time to prevent confusion due to time zone crossing. See the FLG4208 flight status page for this flight to view local times or setup timezone preferences in your user account.

Time Position Orientation Groundspeed Altitude Reporting Facility
EDT Latitude Longitude Course Direction KTS MPH feet Rate Location/Type
10:33PM 42.2036 -83.3556 82° East 154 177 1,200  Level Cleveland Center
10:34PM 42.1436 -83.3444 172° South 216 249 3,200 1,740 Climbing Cleveland Center
10:35PM 42.0811 -83.3333 172° South 254 292 5,100 2,040 Climbing Cleveland Center
10:36PM 42.0069 -83.2967 160° South 288 331 7,400 2,280 Climbing Cleveland Center
10:37PM 42.3148 -82.7593 75° East  Level FlightAware Approximate
10:37PM 42.0178 -83.1964 82° East 291 335 9,700  Level Cleveland Center
10:38PM 42.3309 -82.6080 82° East  Level FlightAware Approximate
10:38PM 42.0333 -83.1522 65° Northeast 301 346 10,000  Level Cleveland Center
10:38PM 42.0639 -83.0947 54° Northeast 328 377 10,700 1,560 Climbing Cleveland Center
10:39PM 42.0833 -83.0536 57° Northeast 325 374 11,600 1,500 Climbing Cleveland Center
10:40PM 42.1336 -82.9464 58° Northeast 337 388 13,000 900 Climbing Cleveland Center
10:41PM 42.1817 -82.8417 58° Northeast 337 388 13,400 900 Climbing Cleveland Center
10:42PM 42.2339 -82.7314 57° Northeast 337 388 14,800 1,320 Climbing Cleveland Center
10:43PM 42.2508 -82.6000 80° East 337 388 16,100 1,200 Climbing Cleveland Center
10:44PM 42.2469 -82.4569 92° East 352 405 17,300 1,200 Climbing Cleveland Center
10:45PM 42.2469 -82.3139 90° East 364 419 18,600 1,140 Climbing Cleveland Center
10:46PM 42.2472 -82.1681 90° East 375 432 19,600 1,020 Climbing Cleveland Center
10:47PM 42.2450 -82.0053 91° East 391 450 20,700 1,020 Climbing Cleveland Center
10:48PM 42.2447 -81.8539 90° East 403 464 21,700 840 Climbing Cleveland Center
10:49PM 42.2422 -81.6994 91° East 403 464 22,400 660 Climbing Cleveland Center
10:50PM 42.2394 -81.5453 91° East 403 464 23,100 600 Climbing Cleveland Center
10:51PM 42.2383 -81.4050 91° East 403 464 23,700 600 Climbing Cleveland Center
10:52PM 42.2372 -81.2478 90° East 416 479 24,400 720 Climbing Cleveland Center
10:53PM 42.2339 -81.0850 92° East 423 487 25,200 780 Climbing Cleveland Center
10:54PM 42.2325 -80.9281 91° East 423 487 26,000 660 Climbing Cleveland Center
10:55PM 42.2286 -80.7683 92° East 423 487 26,600 540 Climbing Cleveland Center
10:56PM 42.2247 -80.5944 92° East 423 487 27,100 480 Climbing Cleveland Center
10:57PM 42.2517 -80.4344 77° East 423 487 27,600 480 Climbing Cleveland Center
10:58PM 42.3056 -80.2883 63° Northeast 423 487 28,100 480 Climbing Cleveland Center
10:59PM 42.3592 -80.1336 65° Northeast 443 510 28,600 480 Climbing Cleveland Center
11:00PM 42.4128 -79.9842 64° Northeast 443 510 29,100 480 Climbing Cleveland Center
11:01PM 42.4661 -79.8344 64° Northeast 443 510 29,600 480 Climbing Cleveland Center
11:02PM 42.5192 -79.6817 65° Northeast 443 510 30,100 420 Climbing Cleveland Center
11:03PM 42.5700 -79.5289 66° East 443 510 30,500 -300 Climbing Cleveland Center
11:04PM 42.6228 -79.3669 66° East 448 516 29,500 -780 Descending Cleveland Center
11:05PM 42.6769 -79.1994 66° East 464 534 29,000 -300 Descending Cleveland Center
11:06PM 42.7333 -79.0342 65° Northeast 471 542 29,000  Level Cleveland Center
11:07PM 42.7872 -78.8717 66° East 476 548 29,000  Level Cleveland Center
11:08PM 42.8431 -78.7058 65° Northeast 476 548 29,000  Level Cleveland Center
11:09PM 42.8964 -78.5369 67° East 476 548 29,000  Level Cleveland Center
11:10PM 42.9478 -78.3764 66° East 471 542 29,000  Level Cleveland Center
11:11PM 43.0028 -78.2069 66° East 471 542 29,000  Level Cleveland Center
11:12PM 43.0553 -78.0375 67° East 476 548 29,000  Level Cleveland Center
11:13PM 43.1100 -77.8672 66° East 482 555 29,000  Level Cleveland Center
11:14PM 43.1642 -77.6942 67° East 482 555 29,000  Level Cleveland Center
11:16PM 43.2842 -77.3125 67° East 485 558 29,000  Level Boston Center
11:17PM 43.3372 -77.1425 67° East 485 558 29,000  Level Boston Center
11:18PM 43.3903 -76.9667 67° East 485 558 29,000  Level Boston Center
11:19PM 43.4431 -76.7903 68° East 485 558 29,000  Level Boston Center
11:20PM 43.4997 -76.6111 66° East 485 558 29,000  Level Boston Center
11:21PM 43.5539 -76.4342 67° East 490 564 29,000  Level Boston Center
11:22PM 43.6058 -76.2569 68° East 490 564 29,000  Level Boston Center
11:23PM 43.6458 -76.1189 68° East 490 564 29,000 -60 Level Boston Center
11:24PM 43.7108 -75.9044 67° East 490 564 28,900  Descending Boston Center
11:25PM 43.7619 -75.7261 68° East 490 564 29,000  Climbing Boston Center
11:26PM 43.8108 -75.5475 69° East 490 564 29,000  Level Boston Center
11:27PM 43.8633 -75.3717 67° East 490 564 29,000 -540 Level Boston Center
11:28PM 43.9114 -75.1983 69° East 484 557 28,000 -1,200 Descending Boston Center
11:29PM 43.9636 -75.0217 68° East 489 563 26,600 -1,320 Descending Boston Center
11:31PM 44.0181 -74.8133 70° East 484 557 24,900 -1,440 Descending Boston Center
11:32PM 44.0783 -74.6075 68° East 479 551 23,200 -1,620 Descending Boston Center
11:33PM 44.1233 -74.4328 70° East 479 551 21,700 -1,800 Descending Boston Center
11:34PM 44.1719 -74.2664 68° East 474 545 19,600 -2,040 Descending Boston Center
11:35PM 44.2139 -74.1086 70° East 456 525 17,700 -2,100 Descending Boston Center
11:36PM 44.2533 -73.9617 69° East 425 489 15,500 -2,100 Descending Boston Center
11:37PM 44.2925 -73.8206 69° East 405 466 13,600 -2,100 Descending Boston Center
11:38PM 44.3522 -73.7117 52° Northeast 339 390 11,400 -2,280 Descending Boston Center
11:39PM 44.4178 -73.6258 43° Northeast 323 372 9,100 -2,400 Descending Boston Center
11:40PM 44.4833 -73.5369 44° Northeast 299 344 6,600 -2,160 Descending Boston Center
11:41PM 44.5297 -73.4767 43° Northeast 281 323 4,800 -1,920 Descending Boston Center
11:42PM 44.5781 -73.4106 44° Northeast 253 291 2,800 -1,320 Descending Boston Center
11:43PM 44.5869 -73.3319 81° East 189 217 2,200 -300 Descending Boston Center
11:44PM 44.5500 -73.2819 136° Southeast 164 189 2,200  Level Boston Center